Time;durP1;ratioP1;P1;durP2;ratioP2;P2;SDS_P1;SDS_P2;PMS_P1;PMS_P2;Temp;Humidity;BMP_temperature;BMP_pressure;BME280_temperature;BME280_humidity;BME280_pressure;Samples;Min_cycle;Max_cycle;Signal;HPM_P1;HPM_P2
2022/01/29 00:01:01;;;;;;;1.37;0.93;;;;;;;1.91;63.10;100925.53;4497972;31;33949;-64
2022/01/29 00:03:32;;;;;;;2.30;0.70;;;;;;;2.03;62.45;100926.75;4486777;31;33014;-64
2022/01/29 00:06:00;;;;;;;3.50;0.65;;;;;;;2.09;62.28;100942.69;4495763;31;33864;-64
2022/01/29 00:08:27;;;;;;;1.45;0.45;;;;;;;2.03;61.98;100949.75;4488902;31;34705;-63
2022/01/29 00:11:02;;;;;;;2.37;0.75;;;;;;;2.23;61.91;100950.78;4488510;31;33721;-64
2022/01/29 00:13:29;;;;;;;3.83;0.60;;;;;;;2.14;61.79;100944.03;4490004;31;33306;-64
2022/01/29 00:15:57;;;;;;;2.58;0.95;;;;;;;2.14;60.74;100945.66;4493377;31;34532;-63
2022/01/29 00:18:24;;;;;;;1.00;0.35;;;;;;;1.83;61.71;100941.78;4492693;31;33493;-64
2022/01/29 00:20:52;;;;;;;3.35;0.62;;;;;;;2.16;60.93;100957.84;4486432;31;33812;-64
2022/01/29 00:23:20;;;;;;;4.28;0.47;;;;;;;2.20;60.98;100956.47;4489878;31;34025;-63
2022/01/29 00:25:48;;;;;;;6.95;0.57;;;;;;;1.90;61.70;100957.88;4495504;31;34453;-63
2022/01/29 00:28:15;;;;;;;2.37;0.68;;;;;;;1.68;63.56;100962.53;4486538;31;33641;-63
2022/01/29 00:30:44;;;;;;;2.87;0.55;;;;;;;2.22;61.75;100956.63;4493658;31;33717;-63
2022/01/29 00:33:13;;;;;;;1.42;0.65;;;;;;;2.02;62.74;100955.59;4488512;31;34163;-63
2022/01/29 00:35:40;;;;;;;2.10;0.52;;;;;;;2.02;63.06;100949.59;4488605;31;33670;-64
2022/01/29 00:38:08;;;;;;;2.28;0.65;;;;;;;2.20;62.59;100960.69;4487000;31;34457;-63
2022/01/29 00:40:36;;;;;;;4.70;0.80;;;;;;;1.24;65.69;100971.78;4492671;31;34556;-64
2022/01/29 00:43:04;;;;;;;3.65;0.55;;;;;;;1.35;66.22;100971.22;4495424;31;33111;-64
2022/01/29 00:45:33;;;;;;;5.68;1.12;;;;;;;1.62;65.54;100966.13;4487217;31;34599;-63
2022/01/29 00:48:00;;;;;;;3.78;0.80;;;;;;;1.64;65.27;100964.62;4488060;31;34749;-63
2022/01/29 00:50:27;;;;;;;5.45;1.45;;;;;;;1.47;66.81;100957.84;4498647;31;34399;-63
2022/01/29 00:52:55;;;;;;;2.85;0.70;;;;;;;1.24;67.65;100970.91;4489486;31;33454;-63
2022/01/29 00:55:23;;;;;;;4.82;1.20;;;;;;;1.66;67.31;100969.16;4492253;31;32756;-63
2022/01/29 00:57:50;;;;;;;3.55;1.67;;;;;;;1.44;68.02;100976.31;4496807;31;33661;-63
2022/01/29 01:00:18;;;;;;;4.43;0.90;;;;;;;1.81;67.26;100968.84;4488937;31;32511;-63
2022/01/29 01:02:45;;;;;;;5.10;1.40;;;;;;;1.45;68.89;100977.22;4495844;31;33438;-63
2022/01/29 01:05:13;;;;;;;5.00;1.40;;;;;;;1.53;68.79;100976.34;4499656;31;33758;-63
2022/01/29 01:07:41;;;;;;;3.62;1.00;;;;;;;1.43;68.67;100982.19;4490024;31;33763;-64
2022/01/29 01:10:10;;;;;;;2.30;0.70;;;;;;;1.61;68.22;100985.66;4488093;31;34573;-63
2022/01/29 01:12:37;;;;;;;2.85;0.98;;;;;;;1.53;68.69;100981.47;4496644;31;33409;-63
2022/01/29 01:15:06;;;;;;;3.20;0.93;;;;;;;1.10;69.97;100982.25;4488936;31;34738;-63
2022/01/29 01:17:33;;;;;;;1.75;0.82;;;;;;;1.20;70.13;100990.09;4490246;31;33976;-63
2022/01/29 01:20:02;;;;;;;4.28;1.27;;;;;;;1.77;68.13;100994.06;4490335;31;33254;-63
2022/01/29 01:22:30;;;;;;;6.22;0.98;;;;;;;1.80;67.78;100995.12;4486134;31;33165;-64
2022/01/29 01:24:57;;;;;;;6.30;1.37;;;;;;;1.57;68.15;100998.88;4498914;31;32735;-63
2022/01/29 01:27:25;;;;;;;2.08;0.98;;;;;;;1.69;68.37;100994.97;4495481;31;34516;-63
2022/01/29 01:29:52;;;;;;;4.60;1.17;;;;;;;1.79;68.33;101011.22;4491710;31;33966;-63
2022/01/29 01:32:20;;;;;;;3.22;0.95;;;;;;;1.53;68.99;101007.00;4488710;31;33373;-64
2022/01/29 01:34:51;;;;;;;4.22;1.20;;;;;;;1.77;68.11;100999.19;4487050;31;33750;-63
2022/01/29 01:37:33;;;;;;;4.55;1.17;;;;;;;1.29;69.81;101006.31;4492969;31;33965;-64
2022/01/29 01:40:01;;;;;;;2.85;0.90;;;;;;;1.40;69.11;100999.75;4494853;31;33958;-63
2022/01/29 01:42:29;;;;;;;6.50;1.35;;;;;;;1.51;69.44;101003.37;4495815;31;34118;-63
2022/01/29 01:44:59;;;;;;;2.58;0.80;;;;;;;1.11;70.74;101009.59;4499434;31;33207;-63
2022/01/29 01:47:27;;;;;;;6.50;2.22;;;;;;;1.30;70.00;100997.94;4489785;31;33635;-63
2022/01/29 01:49:54;;;;;;;3.08;0.90;;;;;;;0.91;70.78;100995.72;4491947;31;32466;-63
2022/01/29 01:52:22;;;;;;;4.00;1.20;;;;;;;1.16;70.07;100994.00;4495548;31;33377;-63
2022/01/29 01:54:49;;;;;;;5.20;1.30;;;;;;;1.20;69.63;100994.28;4492841;31;33979;-64
2022/01/29 01:57:17;;;;;;;5.37;1.58;;;;;;;1.09;69.81;101000.88;4489614;31;33802;-63
2022/01/29 01:59:45;;;;;;;4.97;1.50;;;;;;;1.06;69.58;100995.44;4495584;31;33716;-63
2022/01/29 02:02:12;;;;;;;3.47;1.27;;;;;;;1.24;68.96;100988.78;4493497;31;32893;-63
2022/01/29 02:04:40;;;;;;;5.28;1.25;;;;;;;1.37;67.91;100979.00;4490758;31;33792;-64
2022/01/29 02:07:07;;;;;;;2.78;1.17;;;;;;;1.25;68.01;100983.78;4485690;31;32220;-63
2022/01/29 02:09:38;;;;;;;2.45;0.95;;;;;;;1.46;66.93;100989.25;4493844;31;33591;-63
2022/01/29 02:12:08;;;;;;;3.25;0.90;;;;;;;1.38;66.95;100991.94;4493633;31;34242;-63
2022/01/29 02:14:37;;;;;;;3.40;1.10;;;;;;;0.75;67.91;100977.00;4491211;31;33816;-63
2022/01/29 02:17:08;;;;;;;5.22;1.30;;;;;;;0.68;68.90;100984.81;4498729;31;33871;-64
2022/01/29 02:19:36;;;;;;;5.32;1.40;;;;;;;0.75;68.66;100989.75;4491124;31;33843;-64
2022/01/29 02:22:04;;;;;;;5.25;1.30;;;;;;;0.90;67.28;100991.34;4493036;31;34435;-64
2022/01/29 02:24:32;;;;;;;5.60;1.27;;;;;;;0.96;67.33;100994.50;4491525;31;34609;-64
2022/01/29 02:27:00;;;;;;;4.20;1.15;;;;;;;1.12;66.74;101002.09;4485076;31;33521;-64
2022/01/29 02:29:27;;;;;;;4.20;1.20;;;;;;;0.97;65.22;100985.22;4494574;31;34617;-63
2022/01/29 02:31:57;;;;;;;2.22;0.73;;;;;;;0.57;66.97;100987.13;4495161;31;33425;-63
2022/01/29 02:34:25;;;;;;;4.68;1.00;;;;;;;0.80;65.72;100993.69;4495102;31;33955;-64
2022/01/29 02:36:53;;;;;;;3.10;0.50;;;;;;;1.59;64.07;100987.16;4489019;31;34482;-64
2022/01/29 02:39:21;;;;;;;2.42;0.93;;;;;;;1.70;63.41;100986.59;4486880;31;33602;-63
2022/01/29 02:41:49;;;;;;;5.10;0.90;;;;;;;1.57;63.62;100983.56;4495782;31;33289;-63
2022/01/29 02:44:21;;;;;;;5.68;1.17;;;;;;;1.81;62.80;100990.19;4494130;31;33882;-64
2022/01/29 02:46:52;;;;;;;7.82;1.65;;;;;;;1.58;62.84;101005.78;4489124;31;34008;-64
2022/01/29 02:49:25;;;;;;;6.50;1.30;;;;;;;1.19;65.04;101006.16;4490921;31;33021;-64
2022/01/29 02:51:57;;;;;;;5.07;1.60;;;;;;;0.75;66.42;101007.63;4500515;31;33412;-63
2022/01/29 02:54:25;;;;;;;5.70;1.30;;;;;;;0.58;67.15;100999.16;4492054;31;33923;-64
2022/01/29 02:56:53;;;;;;;4.90;1.10;;;;;;;0.69;66.18;101012.09;4497463;31;33911;-64
2022/01/29 02:59:20;;;;;;;8.32;1.20;;;;;;;0.57;66.93;101007.53;4496275;31;33821;-63
2022/01/29 03:01:48;;;;;;;5.22;1.35;;;;;;;0.73;66.04;100999.81;4485242;32;33420;-64
2022/01/29 03:04:16;;;;;;;3.10;0.90;;;;;;;0.83;65.33;101001.69;4487698;31;33920;-63
2022/01/29 03:06:43;;;;;;;5.40;1.75;;;;;;;0.95;64.58;100992.72;4496800;31;34626;-64
2022/01/29 03:09:11;;;;;;;5.32;1.40;;;;;;;0.67;64.85;101006.84;4488566;31;33880;-64
2022/01/29 03:11:38;;;;;;;5.05;1.00;;;;;;;1.06;63.57;100991.22;4495599;31;33752;-64
2022/01/29 03:14:06;;;;;;;2.08;1.00;;;;;;;1.64;61.13;101001.31;4500321;31;34166;-64
2022/01/29 03:16:33;;;;;;;2.92;1.12;;;;;;;1.62;61.43;101007.88;4490358;31;33755;-64
2022/01/29 03:19:01;;;;;;;4.68;1.08;;;;;;;1.75;61.26;101010.91;4487860;31;33718;-63
2022/01/29 03:21:28;;;;;;;1.80;0.88;;;;;;;1.96;60.32;101029.13;4497650;31;33513;-64
2022/01/29 03:23:56;;;;;;;2.95;0.90;;;;;;;1.88;59.68;101024.91;4491299;31;33856;-63
2022/01/29 03:26:23;;;;;;;5.35;0.85;;;;;;;2.06;58.26;101019.03;4491407;31;33701;-64
2022/01/29 03:28:51;;;;;;;4.75;0.90;;;;;;;1.71;59.85;101024.13;4484538;31;33636;-64
2022/01/29 03:31:20;;;;;;;1.73;0.62;;;;;;;2.01;58.60;101035.59;4484005;31;34242;-64
2022/01/29 03:33:49;;;;;;;4.18;0.80;;;;;;;1.80;58.22;101024.16;4483775;31;32193;-63
2022/01/29 03:36:17;;;;;;;3.40;0.80;;;;;;;1.88;57.82;101040.25;4492551;31;34128;-64
2022/01/29 03:38:45;;;;;;;4.15;0.88;;;;;;;2.13;57.02;101036.78;4486418;31;34160;-64
2022/01/29 03:41:13;;;;;;;6.18;0.90;;;;;;;1.82;57.40;101042.19;4488613;31;33303;-64
2022/01/29 03:43:45;;;;;;;8.77;1.10;;;;;;;1.38;59.06;101043.00;4475599;31;32392;-63
2022/01/29 03:46:14;;;;;;;3.45;0.85;;;;;;;1.45;59.05;101033.37;4490908;31;33579;-64
2022/01/29 03:48:42;;;;;;;1.90;0.90;;;;;;;1.59;58.69;101035.69;4466675;31;32411;-64
2022/01/29 03:51:09;;;;;;;4.55;1.20;;;;;;;1.92;57.48;101040.69;4491380;31;34012;-64
2022/01/29 03:53:37;;;;;;;3.42;0.75;;;;;;;2.02;56.55;101022.06;4481981;31;34036;-63
2022/01/29 03:56:05;;;;;;;1.25;0.45;;;;;;;1.93;56.28;101028.81;4482433;31;34384;-64
2022/01/29 03:58:32;;;;;;;6.40;0.98;;;;;;;1.93;55.96;101026.25;4485426;31;33883;-64
2022/01/29 04:01:00;;;;;;;6.62;1.33;;;;;;;1.41;57.42;101031.28;4479131;32;33956;-64
2022/01/29 04:03:29;;;;;;;4.00;1.08;;;;;;;1.99;55.86;101029.44;4494790;31;33641;-63
2022/01/29 04:05:56;;;;;;;4.07;1.12;;;;;;;2.14;55.13;101033.50;4489755;31;33965;-63
2022/01/29 04:08:25;;;;;;;6.78;1.12;;;;;;;2.17;54.87;101041.44;4499057;31;34483;-64
2022/01/29 04:10:53;;;;;;;3.47;1.02;;;;;;;2.54;54.10;101042.44;4491465;31;33393;-64
2022/01/29 04:13:23;;;;;;;6.03;1.17;;;;;;;2.29;54.48;101039.19;4494110;31;33911;-64
2022/01/29 04:15:51;;;;;;;3.87;0.73;;;;;;;1.85;56.80;101045.03;4498185;31;33526;-64
2022/01/29 04:18:19;;;;;;;4.85;1.27;;;;;;;1.82;56.51;101047.31;4493373;31;34507;-63
2022/01/29 04:20:46;;;;;;;3.67;0.80;;;;;;;2.17;55.44;101038.00;4486392;32;33355;-63
2022/01/29 04:23:13;;;;;;;1.67;0.62;;;;;;;1.94;55.50;101028.97;4493917;31;34564;-63
2022/01/29 04:25:41;;;;;;;3.03;0.57;;;;;;;1.95;55.73;101040.06;4490853;31;33955;-63
2022/01/29 04:28:13;;;;;;;4.12;1.00;;;;;;;2.04;55.63;101025.66;4498991;31;33068;-63
2022/01/29 04:30:44;;;;;;;4.20;0.70;;;;;;;1.88;56.43;101014.69;4489955;31;34303;-63
2022/01/29 04:33:34;;;;;;;4.20;0.98;;;;;;;2.28;55.02;101026.22;4494969;31;34004;-63
2022/01/29 04:36:03;;;;;;;3.92;1.00;;;;;;;2.10;55.48;101015.12;4498493;31;34514;-64
2022/01/29 04:38:31;;;;;;;3.62;1.10;;;;;;;1.95;55.94;101014.53;4489436;31;33702;-63
2022/01/29 04:41:03;;;;;;;3.60;1.00;;;;;;;1.72;56.93;101017.38;4485414;32;33290;-63
2022/01/29 04:43:33;;;;;;;1.60;0.75;;;;;;;2.05;55.88;101019.81;4495455;31;34299;-63
2022/01/29 04:46:06;;;;;;;4.30;1.23;;;;;;;2.09;55.71;101014.25;4489397;31;34575;-63
2022/01/29 04:48:33;;;;;;;3.30;0.80;;;;;;;1.98;56.41;101009.72;4471960;32;34502;-63
2022/01/29 04:51:01;;;;;;;4.22;0.80;;;;;;;2.03;56.26;101017.81;4491859;31;33880;-64
2022/01/29 04:53:28;;;;;;;3.22;1.12;;;;;;;1.84;56.92;101013.50;4493871;31;34495;-64
2022/01/29 04:55:56;;;;;;;4.00;1.23;;;;;;;1.63;57.94;101012.25;4497701;31;33882;-63
2022/01/29 04:58:23;;;;;;;4.47;0.80;;;;;;;1.61;58.20;101008.66;4500258;31;33910;-63
2022/01/29 05:00:51;;;;;;;4.03;0.70;;;;;;;2.22;55.95;101000.09;4486255;31;32775;-64
2022/01/29 05:03:19;;;;;;;5.65;1.20;;;;;;;2.12;56.45;101003.41;4489214;31;34604;-63
2022/01/29 05:05:46;;;;;;;3.67;1.02;;;;;;;1.87;57.36;101007.75;4497146;31;33959;-64
2022/01/29 05:08:14;;;;;;;4.00;0.73;;;;;;;1.95;56.79;101009.41;4487933;31;34512;-64
2022/01/29 05:10:42;;;;;;;3.03;1.02;;;;;;;1.96;56.93;101011.22;4493952;31;32769;-63
2022/01/29 05:13:12;;;;;;;4.50;1.92;;;;;;;2.22;56.04;101006.13;4500965;31;34570;-64
2022/01/29 05:15:45;;;;;;;5.62;1.20;;;;;;;2.32;56.09;101013.03;4490753;31;32605;-63
2022/01/29 05:29:37;;;;;;;8.68;1.70;;;;;;;2.39;57.00;101024.72;4443050;32;33683;-63
2022/01/29 05:32:07;;;;;;;4.72;1.27;;;;;;;2.03;58.05;101028.97;4437498;32;34213;-64
2022/01/29 05:34:35;;;;;;;6.87;1.90;;;;;;;2.08;58.09;101030.31;4464782;31;33892;-64
2022/01/29 05:37:03;;;;;;;6.40;1.35;;;;;;;1.80;59.27;101036.00;4489996;31;34952;-63
2022/01/29 05:39:31;;;;;;;5.35;1.33;;;;;;;2.19;57.89;101025.38;4494846;31;34689;-63
2022/01/29 05:41:59;;;;;;;4.90;1.33;;;;;;;2.12;57.90;101029.84;4489737;31;33455;-64
2022/01/29 05:44:27;;;;;;;5.62;1.27;;;;;;;2.19;57.87;101030.47;4488202;31;33740;-63
2022/01/29 05:46:54;;;;;;;6.37;1.20;;;;;;;2.12;57.72;101034.97;4495177;31;34090;-63
2022/01/29 05:49:22;;;;;;;6.12;1.52;;;;;;;1.89;58.86;101029.25;4493176;31;34002;-64
2022/01/29 05:51:49;;;;;;;5.70;1.60;;;;;;;1.96;58.67;101036.78;4496877;31;33327;-63
2022/01/29 05:54:17;;;;;;;6.05;1.35;;;;;;;2.28;57.69;101031.34;4487783;31;34681;-64
2022/01/29 05:56:44;;;;;;;5.07;1.27;;;;;;;2.19;57.50;101035.59;4490976;31;32438;-64
2022/01/29 05:59:12;;;;;;;5.50;1.02;;;;;;;2.47;56.86;101044.28;4493153;31;34030;-63
2022/01/29 06:01:39;;;;;;;6.15;1.30;;;;;;;2.37;57.39;101055.25;4491776;31;33193;-64
2022/01/29 06:04:07;;;;;;;4.43;1.30;;;;;;;3.09;55.06;101056.12;4496104;31;33987;-63
2022/01/29 06:06:35;;;;;;;4.40;1.10;;;;;;;2.53;56.24;101055.09;4488965;31;34492;-64
2022/01/29 06:09:04;;;;;;;5.12;0.90;;;;;;;3.32;53.92;101061.78;4498715;31;33710;-64
2022/01/29 06:11:32;;;;;;;4.10;1.60;;;;;;;2.72;55.46;101062.88;4493554;31;34159;-64
2022/01/29 06:14:00;;;;;;;5.75;1.40;;;;;;;2.99;54.71;101069.72;4487828;31;34005;-64
2022/01/29 06:16:28;;;;;;;6.50;1.73;;;;;;;3.34;53.48;101069.59;4497558;31;33904;-64
2022/01/29 06:18:56;;;;;;;7.43;2.15;;;;;;;3.18;53.71;101064.69;4490924;31;33702;-64
2022/01/29 06:21:23;;;;;;;6.70;1.52;;;;;;;3.13;54.28;101074.53;4497802;31;33372;-64
2022/01/29 06:23:51;;;;;;;7.37;2.62;;;;;;;3.59;52.99;101082.13;4501026;31;34502;-64
2022/01/29 06:26:18;;;;;;;10.48;2.00;;;;;;;3.58;53.07;101072.66;4494149;31;34818;-64
2022/01/29 06:28:46;;;;;;;9.40;2.20;;;;;;;2.58;55.42;101071.78;4492558;31;34372;-64
2022/01/29 06:31:13;;;;;;;10.00;2.47;;;;;;;2.02;57.76;101072.28;4492930;31;33845;-63
2022/01/29 06:33:41;;;;;;;15.73;3.37;;;;;;;2.19;57.75;101069.72;4500412;31;34178;-64
2022/01/29 06:36:08;;;;;;;10.25;2.53;;;;;;;2.07;57.99;101066.88;4480659;31;34035;-64
2022/01/29 06:38:36;;;;;;;8.55;2.60;;;;;;;2.26;57.82;101073.75;4491168;31;34495;-64
2022/01/29 06:41:03;;;;;;;7.93;3.40;;;;;;;1.98;58.60;101086.38;4488934;31;33251;-64
2022/01/29 06:43:31;;;;;;;9.80;2.40;;;;;;;1.53;60.51;101079.41;4492531;31;34473;-65
2022/01/29 06:45:58;;;;;;;8.77;2.90;;;;;;;1.85;60.33;101074.03;4494604;31;34777;-64
2022/01/29 06:48:26;;;;;;;8.77;2.60;;;;;;;1.62;61.39;101076.84;4492105;31;33800;-64
2022/01/29 06:50:54;;;;;;;11.32;3.12;;;;;;;1.63;61.68;101081.22;4492955;31;34322;-66
2022/01/29 06:53:21;;;;;;;9.75;2.45;;;;;;;1.49;62.47;101071.28;4486766;31;33225;-65
2022/01/29 06:55:49;;;;;;;8.48;2.05;;;;;;;2.68;59.23;101061.69;4493845;31;34498;-65
2022/01/29 06:58:16;;;;;;;11.43;3.20;;;;;;;1.98;61.37;101075.28;4490692;31;34370;-65
2022/01/29 07:01:03;;;;;;;10.40;2.58;;;;;;;1.66;62.41;101081.53;4495311;31;33436;-65
2022/01/29 07:03:31;;;;;;;6.78;2.08;;;;;;;2.10;62.08;101082.47;4491313;31;34348;-65
2022/01/29 07:05:59;;;;;;;10.93;2.20;;;;;;;1.70;62.39;101088.75;4490968;31;33204;-64
2022/01/29 07:08:26;;;;;;;7.55;2.42;;;;;;;1.54;63.06;101091.41;4497168;31;33865;-64
2022/01/29 07:10:54;;;;;;;13.02;2.47;;;;;;;1.30;62.96;101094.03;4493935;31;33298;-64
2022/01/29 07:13:22;;;;;;;5.75;1.95;;;;;;;1.37;63.64;101087.16;4490627;31;33883;-64
2022/01/29 07:15:51;;;;;;;9.10;2.37;;;;;;;1.34;62.46;101085.94;4493242;31;34743;-64
2022/01/29 07:18:18;;;;;;;7.72;2.50;;;;;;;1.88;62.36;101081.13;4489844;31;34614;-64
2022/01/29 07:20:47;;;;;;;10.27;2.62;;;;;;;1.36;62.20;101085.34;4492866;31;34108;-65
2022/01/29 07:23:15;;;;;;;9.60;2.47;;;;;;;1.85;61.85;101083.38;4496631;31;34540;-65
2022/01/29 07:25:42;;;;;;;11.20;3.20;;;;;;;1.57;63.05;101090.81;4492313;31;34726;-64
2022/01/29 07:28:10;;;;;;;8.68;2.10;;;;;;;1.62;63.38;101098.94;4494429;31;33550;-65
2022/01/29 07:30:37;;;;;;;8.43;2.33;;;;;;;1.26;64.34;101092.81;4500638;31;33376;-64
2022/01/29 07:33:05;;;;;;;6.65;2.53;;;;;;;2.08;62.11;101099.31;4496366;31;33760;-65
2022/01/29 07:35:32;;;;;;;12.55;2.50;;;;;;;1.73;63.34;101108.59;4494900;31;33902;-65
2022/01/29 07:38:00;;;;;;;11.75;3.22;;;;;;;1.28;65.19;101106.62;4497360;31;34405;-65
2022/01/29 07:40:27;;;;;;;10.65;3.15;;;;;;;1.26;65.68;101113.22;4491585;31;33564;-65
2022/01/29 07:42:55;;;;;;;8.70;2.30;;;;;;;1.52;65.21;101112.44;4497693;31;33854;-64
2022/01/29 07:45:23;;;;;;;12.77;4.15;;;;;;;2.12;63.43;101103.97;4487151;31;34042;-64
2022/01/29 07:47:50;;;;;;;9.35;3.05;;;;;;;2.34;62.13;101104.47;4489394;31;34546;-64
2022/01/29 07:50:17;;;;;;;46.40;14.30;;;;;;;2.39;62.02;101101.44;4488808;31;32772;-64
2022/01/29 07:52:45;;;;;;;15.07;4.87;;;;;;;2.93;60.30;101100.75;4496962;31;33625;-67
2022/01/29 07:55:12;;;;;;;16.85;5.72;;;;;;;3.08;59.67;101095.31;4498982;31;34617;-66
2022/01/29 07:57:40;;;;;;;19.12;6.37;;;;;;;2.73;60.80;101090.28;4486852;32;33851;-64
2022/01/29 08:00:08;;;;;;;10.98;4.50;;;;;;;2.93;60.28;101098.19;4494590;31;34096;-64
2022/01/29 08:02:39;;;;;;;15.48;6.22;;;;;;;3.47;58.55;101102.38;4495766;31;33704;-64
2022/01/29 08:05:08;;;;;;;8.48;3.00;;;;;;;2.98;59.26;101108.91;4493257;31;34054;-64
2022/01/29 08:07:35;;;;;;;18.73;8.45;;;;;;;2.95;59.64;101096.72;4491140;31;34642;-65
2022/01/29 08:10:03;;;;;;;20.75;9.30;;;;;;;3.54;58.28;101105.66;4491470;31;33160;-64
2022/01/29 08:12:31;;;;;;;16.17;7.62;;;;;;;3.39;58.12;101108.47;4497226;31;33755;-63
2022/01/29 08:14:58;;;;;;;17.12;4.85;;;;;;;3.34;58.82;101111.50;4500323;31;33600;-64
2022/01/29 08:17:26;;;;;;;8.85;3.47;;;;;;;3.51;58.74;101114.72;4487103;31;33727;-65
2022/01/29 08:19:53;;;;;;;27.35;10.70;;;;;;;2.65;60.31;101109.13;4496298;31;33486;-66
2022/01/29 08:22:21;;;;;;;11.93;3.28;;;;;;;3.48;58.71;101106.78;4489838;31;32915;-66
2022/01/29 08:24:48;;;;;;;9.25;2.80;;;;;;;2.90;59.95;101104.72;4492173;31;33765;-65
2022/01/29 08:27:16;;;;;;;11.52;4.35;;;;;;;2.78;60.69;101108.63;4496935;31;32220;-65
2022/01/29 08:29:43;;;;;;;8.60;2.87;;;;;;;3.74;57.05;101115.19;4493763;31;34207;-64
2022/01/29 08:32:11;;;;;;;13.40;5.05;;;;;;;3.21;58.20;101105.97;4500779;31;33811;-68
2022/01/29 08:34:40;;;;;;;12.48;4.57;;;;;;;3.85;56.32;101102.50;4488715;31;34341;-66
2022/01/29 08:37:09;;;;;;;16.08;5.75;;;;;;;3.54;57.14;101108.22;4489571;31;33345;-64
2022/01/29 08:39:36;;;;;;;15.60;5.40;;;;;;;3.66;56.12;101115.25;4501847;31;34206;-64
2022/01/29 08:42:04;;;;;;;6.57;2.33;;;;;;;3.86;55.67;101105.22;4493353;31;33666;-66
2022/01/29 08:44:32;;;;;;;8.13;2.28;;;;;;;3.59;56.08;101106.09;4489908;31;33888;-64
2022/01/29 08:46:59;;;;;;;12.50;3.45;;;;;;;2.76;58.49;101105.91;4492733;31;33835;-64
2022/01/29 08:49:27;;;;;;;10.65;2.87;;;;;;;3.70;55.75;101112.22;4493342;31;34311;-64
2022/01/29 08:51:55;;;;;;;8.20;2.35;;;;;;;3.73;55.20;101115.09;4491066;31;34388;-65
2022/01/29 08:54:22;;;;;;;7.85;2.25;;;;;;;3.38;56.04;101114.31;4492616;31;34571;-66
2022/01/29 08:56:50;;;;;;;10.07;3.08;;;;;;;2.70;57.76;101115.56;4495216;31;34361;-65
2022/01/29 08:59:17;;;;;;;13.15;2.75;;;;;;;3.68;54.53;101114.63;4497947;31;34251;-66
2022/01/29 09:01:44;;;;;;;8.40;2.35;;;;;;;4.13;53.21;101117.09;4496637;31;33383;-65
2022/01/29 09:04:12;;;;;;;7.20;1.80;;;;;;;2.86;55.81;101111.19;4493022;31;34694;-65
2022/01/29 09:06:39;;;;;;;8.55;2.42;;;;;;;3.30;55.27;101119.66;4489891;31;34631;-66
2022/01/29 09:09:07;;;;;;;10.80;3.22;;;;;;;3.96;52.44;101127.47;4495467;31;33155;-67
2022/01/29 09:11:35;;;;;;;9.73;3.33;;;;;;;4.55;50.67;101109.66;4486457;31;34933;-65
2022/01/29 09:14:02;;;;;;;13.00;2.72;;;;;;;4.34;50.56;101112.09;4494877;31;33809;-66
2022/01/29 09:16:29;;;;;;;8.95;3.30;;;;;;;3.96;51.33;101117.22;4500335;31;33941;-65
2022/01/29 09:18:57;;;;;;;7.43;1.52;;;;;;;3.96;51.18;101119.78;4487286;31;33449;-65
2022/01/29 09:21:24;;;;;;;7.25;2.30;;;;;;;3.61;50.89;101122.53;4488507;31;33853;-64
2022/01/29 09:23:55;;;;;;;7.07;2.20;;;;;;;3.84;49.93;101126.31;4493612;31;33491;-66
2022/01/29 09:26:23;;;;;;;7.93;1.90;;;;;;;3.88;49.51;101118.13;4495363;31;33783;-65
2022/01/29 09:28:51;;;;;;;4.37;1.10;;;;;;;4.30;47.83;101112.59;4486794;31;34413;-63
2022/01/29 09:31:19;;;;;;;6.12;1.67;;;;;;;3.85;48.83;101112.75;4497590;31;34010;-66
2022/01/29 09:33:57;;;;;;;6.75;1.42;;;;;;;4.17;48.28;101109.66;4489900;31;33767;-64
2022/01/29 09:36:39;;;;;;;5.30;1.45;;;;;;;4.30;48.40;101103.22;4480009;31;33524;-65
2022/01/29 09:39:07;;;;;;;5.00;1.92;;;;;;;4.36;48.89;101101.97;4490647;31;34044;-65
2022/01/29 09:41:36;;;;;;;6.70;1.73;;;;;;;4.49;48.78;101090.38;4495902;31;33761;-66
2022/01/29 09:44:04;;;;;;;5.78;1.35;;;;;;;4.46;49.16;101092.69;4495297;31;33091;-64
2022/01/29 09:46:32;;;;;;;6.82;1.70;;;;;;;4.71;48.64;101084.59;4498735;31;33850;-63
2022/01/29 09:49:00;;;;;;;5.30;1.50;;;;;;;4.32;48.96;101088.84;4496077;31;33252;-64
2022/01/29 09:51:27;;;;;;;10.07;2.00;;;;;;;4.71;49.28;101079.44;4493505;31;33704;-64
2022/01/29 09:53:55;;;;;;;7.90;2.25;;;;;;;4.48;50.92;101074.84;4493526;31;33614;-64
2022/01/29 09:56:22;;;;;;;8.60;1.92;;;;;;;4.75;50.78;101061.00;4490011;31;33838;-63
2022/01/29 09:58:50;;;;;;;8.07;3.15;;;;;;;4.78;50.10;101053.56;4488108;31;33250;-64
2022/01/29 10:01:18;;;;;;;5.80;1.55;;;;;;;4.83;50.84;101048.81;4491320;31;34565;-64
2022/01/29 10:04:02;;;;;;;8.85;2.12;;;;;;;5.22;50.13;101051.41;4493441;31;33886;-65
2022/01/29 10:06:30;;;;;;;7.53;2.37;;;;;;;4.99;50.96;101053.66;4491294;31;34401;-65
2022/01/29 10:08:59;;;;;;;10.00;2.85;;;;;;;5.00;51.02;101053.75;4487921;31;32647;-64
2022/01/29 10:11:27;;;;;;;9.90;2.58;;;;;;;5.40;50.28;101048.59;4487318;31;33694;-64
2022/01/29 10:13:59;;;;;;;6.43;2.37;;;;;;;4.73;52.54;101048.03;4490278;31;33869;-64
2022/01/29 10:16:29;;;;;;;11.63;2.20;;;;;;;4.74;51.96;101048.94;4495327;31;34340;-63
2022/01/29 10:19:00;;;;;;;7.57;2.25;;;;;;;5.16;50.88;101037.09;4492882;31;34211;-64
2022/01/29 10:21:42;;;;;;;11.07;2.60;;;;;;;4.91;52.36;101038.47;4490776;31;32176;-64
2022/01/29 10:24:11;;;;;;;10.13;2.47;;;;;;;4.72;52.90;101042.78;4484613;31;32431;-65
2022/01/29 10:26:47;;;;;;;8.77;2.50;;;;;;;4.56;53.16;101048.22;4489060;31;33668;-64
2022/01/29 10:29:23;;;;;;;9.15;2.70;;;;;;;4.20;54.21;101039.03;4492379;31;32220;-65
2022/01/29 10:31:56;;;;;;;9.30;2.70;;;;;;;4.34;54.32;101047.97;4491746;31;33277;-64
2022/01/29 10:34:29;;;;;;;7.25;2.53;;;;;;;5.18;52.19;101045.88;4492647;31;33953;-64
2022/01/29 10:37:20;;;;;;;12.40;4.00;;;;;;;4.30;55.12;101048.44;4498007;31;33504;-64
2022/01/29 10:39:56;;;;;;;8.60;3.42;;;;;;;4.02;55.81;101039.94;4485902;31;34152;-65
2022/01/29 10:42:31;;;;;;;7.97;3.80;;;;;;;3.77;56.19;101041.91;4489354;31;33957;-65
2022/01/29 10:45:05;;;;;;;11.80;3.25;;;;;;;3.65;57.11;101037.50;4494912;31;33834;-64
2022/01/29 10:47:56;;;;;;;11.30;2.75;;;;;;;3.64;57.74;101040.81;4497350;31;33995;-64
2022/01/29 10:50:24;;;;;;;13.98;3.17;;;;;;;4.29;56.26;101026.16;4498501;31;33107;-64
2022/01/29 10:52:52;;;;;;;7.80;2.30;;;;;;;4.77;54.83;101026.13;4493557;31;33884;-64
2022/01/29 10:55:19;;;;;;;11.25;3.28;;;;;;;4.81;54.49;101017.00;4486509;31;34623;-65
2022/01/29 10:57:48;;;;;;;11.40;3.22;;;;;;;3.76;57.24;101024.75;4493756;31;33540;-65
2022/01/29 11:00:22;;;;;;;15.27;2.90;;;;;;;4.39;56.11;101018.50;4495915;31;33587;-63
2022/01/29 11:02:53;;;;;;;12.63;2.95;;;;;;;4.55;55.68;101014.72;4486970;31;34475;-64
2022/01/29 11:05:25;;;;;;;10.10;3.70;;;;;;;4.37;55.89;101014.91;4486831;31;35805;-64
2022/01/29 11:07:54;;;;;;;11.65;3.03;;;;;;;4.58;56.38;101015.91;4495277;31;33681;-64
2022/01/29 11:10:25;;;;;;;13.30;2.95;;;;;;;3.97;57.75;101020.69;4489214;31;34023;-64
2022/01/29 11:12:52;;;;;;;14.63;3.03;;;;;;;4.17;57.04;101010.53;4493882;31;33040;-64
2022/01/29 11:15:22;;;;;;;16.73;3.65;;;;;;;4.87;55.21;101005.59;4494945;31;33979;-64
2022/01/29 11:17:50;;;;;;;11.35;3.47;;;;;;;5.29;54.52;101002.34;4491900;31;33597;-64
2022/01/29 11:20:18;;;;;;;14.25;3.60;;;;;;;5.07;55.40;100999.59;4493158;31;34017;-64
2022/01/29 11:22:47;;;;;;;12.15;3.45;;;;;;;4.33;57.39;100998.34;4490567;31;33972;-64
2022/01/29 11:25:18;;;;;;;12.07;2.83;;;;;;;4.52;57.93;100990.59;4495515;31;33860;-64
2022/01/29 11:27:45;;;;;;;10.10;3.08;;;;;;;5.44;55.17;100981.28;4491266;31;33701;-65
2022/01/29 11:30:14;;;;;;;11.65;3.70;;;;;;;5.32;55.70;100987.19;4492358;31;32807;-64
2022/01/29 11:32:47;;;;;;;19.62;4.37;;;;;;;5.46;55.33;100975.47;4492970;31;35587;-64
2022/01/29 11:35:25;;;;;;;14.30;5.05;;;;;;;4.71;57.44;100974.22;4492461;31;33485;-64
2022/01/29 11:38:06;;;;;;;22.40;5.55;;;;;;;4.69;57.96;100962.91;4495204;31;33826;-64
2022/01/29 11:41:01;;;;;;;26.98;7.43;;;;;;;4.54;58.22;100962.50;4490106;31;34052;-65
2022/01/29 11:43:31;;;;;;;10.52;3.62;;;;;;;5.04;56.70;100962.47;4493179;31;32308;-65
2022/01/29 11:46:10;;;;;;;15.00;4.00;;;;;;;4.37;58.66;100953.34;4484881;31;34907;-64
2022/01/29 11:48:51;;;;;;;20.08;4.68;;;;;;;4.92;57.12;100949.50;4487540;31;33726;-64
2022/01/29 11:51:41;;;;;;;16.30;4.25;;;;;;;4.30;59.02;100943.28;4488640;31;32639;-65